CST,Max TemperatureF,Mean TemperatureF,Min TemperatureF,Max Dew PointF,MeanDew PointF,Min DewpointF,Max Humidity, Mean Humidity, Min Humidity, Max Sea Level PressureIn, Mean Sea Level PressureIn, Min Sea Level PressureIn, Max VisibilityMiles, Mean VisibilityMiles, Min VisibilityMiles, Max Wind SpeedMPH, Mean Wind SpeedMPH, Max Gust SpeedMPH,PrecipitationIn, CloudCover, Events, WindDirDegrees
2013-11-1,45,35,25,38,32,24,92,77,62,30.06,29.84,29.62,10,10,10,25,12,35,0.03,5,Rain,300
2013-11-2,56,39,22,34,27,21,96,64,32,30.12,30.03,29.80,10,10,10,17,6,24,0.00,0,,187
2013-11-3,46,40,34,34,31,28,82,70,57,29.75,29.63,29.55,10,10,10,21,7,26,0.00,1,,144
2013-11-4,43,33,22,27,20,12,70,52,33,30.14,29.95,29.75,10,10,9,30,16,39,0.00,2,Snow,280
2013-11-5,40,30,19,20,17,14,81,63,44,30.29,30.22,30.17,10,10,10,14,6,18,0.00,0,,250
2013-11-6,47,34,20,25,21,18,92,62,31,30.31,30.16,30.11,10,10,10,15,6,20,0.00,3,,259
2013-11-7,48,33,17,27,21,15,88,61,34,30.32,30.24,30.03,10,10,10,18,7,23,0.00,0,,280
2013-11-8,46,38,30,37,32,24,92,78,64,29.98,29.71,29.55,10,10,10,30,11,43,T,8,Rain,299
2013-11-9,41,29,16,33,23,15,92,70,48,30.38,30.16,29.85,10,10,10,29,14,40,0.00,5,,299
2013-11-10,43,29,15,28,15,-5,92,64,35,30.46,30.30,30.17,10,10,10,23,9,30,0.00,5,,11
2013-11-11,24,16,8,2,-1,-8,73,52,30,30.82,30.72,30.48,10,10,10,17,7,22,0.00,1,,360
2013-11-12,48,28,8,26,17,3,92,67,42,30.79,30.52,30.18,10,10,10,17,7,20,0.00,0,,162
2013-11-13,54,37,20,35,30,19,92,69,46,30.14,30.00,29.90,10,10,10,18,5,24,0.00,1,,274
2013-11-14,51,36,21,34,30,21,89,67,44,29.95,29.87,29.80,10,10,10,20,7,26,0.00,2,,282
2013-11-15,55,37,19,31,25,18,96,67,38,29.81,29.59,29.42,10,10,10,12,3,15,0.00,0,,118
2013-11-16,45,32,18,35,27,16,96,75,53,29.43,29.39,29.31,10,9,1,10,2,13,0.02,6,Rain,346
2013-11-17,35,33,30,34,29,23,100,86,72,30.04,29.66,29.39,10,6,0,18,7,26,0.01,8,Fog-Rain-Snow,324
2013-11-18,44,29,14,28,23,13,92,73,53,30.16,30.09,29.99,10,10,10,15,7,17,0.00,0,,147
2013-11-19,40,32,23,30,26,22,92,78,64,29.97,29.71,29.58,10,10,10,16,7,19,0.00,0,,144
2013-11-20,31,22,13,25,12,6,92,75,57,30.43,30.14,29.70,10,7,1,23,14,28,0.03,7,Snow,338
2013-11-21,14,7,-1,6,0,-5,87,74,61,30.74,30.62,30.34,10,10,6,23,9,29,T,2,Snow,311
2013-11-22,21,8,-6,13,2,-9,80,68,56,30.95,30.72,30.55,10,10,4,20,9,25,T,3,Snow,330
2013-11-23,19,4,-11,10,-1,-14,83,66,49,30.99,30.80,30.47,10,10,10,15,6,18,0.00,1,,158
2013-11-24,46,28,10,27,19,9,92,65,38,30.42,30.08,29.91,10,10,10,17,8,23,T,1,Rain,242
2013-11-25,36,30,23,26,21,14,84,70,56,30.37,30.21,30.01,10,10,10,25,14,35,0.00,5,,309
2013-11-26,23,15,6,14,8,3,88,70,52,30.58,30.48,30.32,10,10,7,21,9,28,T,3,Snow,343
2013-11-27,38,24,10,22,16,6,84,66,48,30.41,30.14,29.97,10,10,10,26,13,34,0.00,3,,269
2013-11-28,26,24,21,17,13,10,75,69,63,30.47,30.39,30.28,10,10,9,22,8,26,T,6,,74
2013-11-29,41,28,15,24,18,12,92,72,51,30.32,30.12,30.01,10,10,7,13,7,16,0.00,2,,169
2013-11-30,39,28,16,28,24,15,96,80,64,30.23,30.18,30.10,10,10,8,9,2,12,0.00,6,,246